ADDS - METARS form results

Aviation Digital Data Service (ADDS)

Output produced by METARs form (0203 UTC 18 November 2019)
found at http://aviationweather.gov/metar/data/
 
METAR text: KPNT 180155Z AUTO 00000KT 2 1/2SM -RA BKN016 OVC023 04/03 A2988 RMK AO2 P0003 T00350031
Conditions at: KPNT (PONTIAC , IL, US) observed 0155 UTC 18 November 2019
Temperature: 3.5°C (38°F)
Dewpoint: 3.1°C (38°F) [RH = 97%]
Pressure (altimeter): 29.88 inches Hg (1011.9 mb)
Winds: calm
Visibility: 2.50 miles (4.02 km)
Ceiling: 1600 feet AGL
Clouds: broken clouds at 1600 feet AGL
overcast cloud deck at 2300 feet AGL
Weather: -RA  (light rain)

METAR text: KPNT 180135Z AUTO 00000KT 2 1/2SM -RA SCT018 OVC023 04/03 A2988 RMK AO2 P0002 T00350030
Conditions at: KPNT (PONTIAC , IL, US) observed 0135 UTC 18 November 2019
Temperature: 3.5°C (38°F)
Dewpoint: 3.0°C (37°F) [RH = 97%]
Pressure (altimeter): 29.88 inches Hg (1011.9 mb)
Winds: calm
Visibility: 2.50 miles (4.02 km)
Ceiling: 2300 feet AGL
Clouds: scattered clouds at 1800 feet AGL
overcast cloud deck at 2300 feet AGL
Weather: -RA  (light rain)

METAR text: KPNT 180115Z AUTO 15003KT 3SM -RA SCT021 SCT027 OVC036 04/03 A2988 RMK AO2 P0001 T00350030
Conditions at: KPNT (PONTIAC , IL, US) observed 0115 UTC 18 November 2019
Temperature: 3.5°C (38°F)
Dewpoint: 3.0°C (37°F) [RH = 97%]
Pressure (altimeter): 29.88 inches Hg (1011.9 mb)
Winds: from the SSE (150 degrees) at 3 MPH (3 knots; 1.5 m/s)
Visibility: 3 miles ( 5 km)
Ceiling: 3600 feet AGL
Clouds: scattered clouds at 2100 feet AGL
scattered clouds at 2700 feet AGL
overcast cloud deck at 3600 feet AGL
Weather: -RA  (light rain)